International Virtual Aviation Organisation

Russian Federation and Kazakhstan MCD

 
ULAA 210130Z 30001MPS 9999 BKN012CB M00/M01 Q1007 R26/590340 NOSIG RMK QFE754/1006
QNH:(hPa/inHg/mmHg)1007 / 29.74 / 755
QFE:(hPa/inHg/mmHg)1005 / 29.67 / 754
Temperature-0
Dew Point-1
Visibility> 10000
Weather
Cloud CoverBKN (1200);
Transition Height800 m./2700 ft.
Transition LevelFL50
SQUAWK